sensor_id;sensor_type;location;lat;lon;timestamp;P1;durP1;ratioP1;P2;durP2;ratioP2
56911;SDS011;42800;53.928;27.662;2022-09-09T00:00:15;3.78;;;1.90;;
56911;SDS011;42800;53.928;27.662;2022-09-09T00:02:44;4.03;;;1.80;;
56911;SDS011;42800;53.928;27.662;2022-09-09T00:05:22;2.67;;;1.80;;
56911;SDS011;42800;53.928;27.662;2022-09-09T00:07:55;6.22;;;2.22;;
56911;SDS011;42800;53.928;27.662;2022-09-09T00:10:27;2.58;;;1.80;;
56911;SDS011;42800;53.928;27.662;2022-09-09T00:12:57;3.83;;;1.75;;
56911;SDS011;42800;53.928;27.662;2022-09-09T00:18:02;4.10;;;1.88;;
56911;SDS011;42800;53.928;27.662;2022-09-09T00:20:41;9.32;;;2.28;;
56911;SDS011;42800;53.928;27.662;2022-09-09T00:23:14;1.98;;;1.70;;
56911;SDS011;42800;53.928;27.662;2022-09-09T00:25:51;6.07;;;2.17;;
56911;SDS011;42800;53.928;27.662;2022-09-09T00:28:25;2.97;;;1.65;;
56911;SDS011;42800;53.928;27.662;2022-09-09T00:30:56;4.38;;;1.85;;
56911;SDS011;42800;53.928;27.662;2022-09-09T00:33:27;3.00;;;1.90;;
56911;SDS011;42800;53.928;27.662;2022-09-09T00:35:57;3.58;;;1.85;;
56911;SDS011;42800;53.928;27.662;2022-09-09T00:38:25;5.30;;;2.30;;
56911;SDS011;42800;53.928;27.662;2022-09-09T00:40:58;2.50;;;1.58;;
56911;SDS011;42800;53.928;27.662;2022-09-09T00:43:33;5.20;;;2.25;;
56911;SDS011;42800;53.928;27.662;2022-09-09T00:46:06;4.45;;;1.80;;
56911;SDS011;42800;53.928;27.662;2022-09-09T00:48:58;2.27;;;1.47;;
56911;SDS011;42800;53.928;27.662;2022-09-09T00:51:34;4.55;;;1.75;;
56911;SDS011;42800;53.928;27.662;2022-09-09T00:54:23;3.55;;;1.90;;
56911;SDS011;42800;53.928;27.662;2022-09-09T00:57:03;4.28;;;2.20;;
56911;SDS011;42800;53.928;27.662;2022-09-09T00:59:41;6.13;;;2.08;;
56911;SDS011;42800;53.928;27.662;2022-09-09T01:02:13;5.00;;;1.52;;
56911;SDS011;42800;53.928;27.662;2022-09-09T01:04:47;2.50;;;1.50;;
56911;SDS011;42800;53.928;27.662;2022-09-09T01:07:15;4.55;;;1.85;;
56911;SDS011;42800;53.928;27.662;2022-09-09T01:09:45;3.08;;;1.80;;
56911;SDS011;42800;53.928;27.662;2022-09-09T01:12:23;2.38;;;1.58;;
56911;SDS011;42800;53.928;27.662;2022-09-09T01:14:51;3.10;;;1.60;;
56911;SDS011;42800;53.928;27.662;2022-09-09T01:17:23;3.00;;;1.63;;
56911;SDS011;42800;53.928;27.662;2022-09-09T01:20:00;5.13;;;1.85;;
56911;SDS011;42800;53.928;27.662;2022-09-09T01:22:34;1.73;;;1.40;;
56911;SDS011;42800;53.928;27.662;2022-09-09T01:25:11;4.32;;;2.53;;
56911;SDS011;42800;53.928;27.662;2022-09-09T01:27:46;5.55;;;1.92;;
56911;SDS011;42800;53.928;27.662;2022-09-09T01:30:14;4.72;;;1.55;;
56911;SDS011;42800;53.928;27.662;2022-09-09T01:32:43;7.97;;;2.35;;
56911;SDS011;42800;53.928;27.662;2022-09-09T01:35:11;6.00;;;1.85;;
56911;SDS011;42800;53.928;27.662;2022-09-09T01:37:44;3.80;;;1.85;;
56911;SDS011;42800;53.928;27.662;2022-09-09T01:40:10;1.83;;;1.70;;
56911;SDS011;42800;53.928;27.662;2022-09-09T01:42:36;3.47;;;1.70;;
56911;SDS011;42800;53.928;27.662;2022-09-09T01:45:03;2.72;;;1.65;;
56911;SDS011;42800;53.928;27.662;2022-09-09T01:47:30;2.58;;;1.70;;
56911;SDS011;42800;53.928;27.662;2022-09-09T01:49:57;2.28;;;1.80;;
56911;SDS011;42800;53.928;27.662;2022-09-09T01:52:24;2.13;;;1.73;;
56911;SDS011;42800;53.928;27.662;2022-09-09T01:54:51;6.68;;;1.92;;
56911;SDS011;42800;53.928;27.662;2022-09-09T01:57:18;2.83;;;1.85;;
56911;SDS011;42800;53.928;27.662;2022-09-09T01:59:57;2.53;;;1.77;;
56911;SDS011;42800;53.928;27.662;2022-09-09T02:02:33;3.05;;;1.55;;
56911;SDS011;42800;53.928;27.662;2022-09-09T02:05:07;4.05;;;1.55;;
56911;SDS011;42800;53.928;27.662;2022-09-09T02:07:43;1.98;;;1.48;;
56911;SDS011;42800;53.928;27.662;2022-09-09T02:10:15;2.45;;;1.80;;
56911;SDS011;42800;53.928;27.662;2022-09-09T02:12:43;2.33;;;1.58;;
56911;SDS011;42800;53.928;27.662;2022-09-09T02:15:15;2.58;;;1.70;;
56911;SDS011;42800;53.928;27.662;2022-09-09T02:17:48;1.65;;;1.50;;
56911;SDS011;42800;53.928;27.662;2022-09-09T02:20:17;2.28;;;1.75;;
56911;SDS011;42800;53.928;27.662;2022-09-09T02:22:45;4.75;;;1.85;;
56911;SDS011;42800;53.928;27.662;2022-09-09T02:25:15;2.58;;;1.80;;
56911;SDS011;42800;53.928;27.662;2022-09-09T02:27:45;3.42;;;1.45;;
56911;SDS011;42800;53.928;27.662;2022-09-09T02:30:14;3.65;;;1.50;;
56911;SDS011;42800;53.928;27.662;2022-09-09T02:32:41;3.40;;;1.90;;
56911;SDS011;42800;53.928;27.662;2022-09-09T02:35:11;3.03;;;1.90;;
56911;SDS011;42800;53.928;27.662;2022-09-09T02:37:40;4.50;;;2.28;;
56911;SDS011;42800;53.928;27.662;2022-09-09T02:40:08;3.85;;;1.73;;
56911;SDS011;42800;53.928;27.662;2022-09-09T02:42:38;4.72;;;1.83;;
56911;SDS011;42800;53.928;27.662;2022-09-09T02:45:06;6.28;;;1.90;;
56911;SDS011;42800;53.928;27.662;2022-09-09T02:47:34;2.40;;;1.95;;
56911;SDS011;42800;53.928;27.662;2022-09-09T02:50:06;3.13;;;1.60;;
56911;SDS011;42800;53.928;27.662;2022-09-09T02:52:40;2.90;;;1.70;;
56911;SDS011;42800;53.928;27.662;2022-09-09T02:55:15;3.45;;;1.58;;
56911;SDS011;42800;53.928;27.662;2022-09-09T02:57:47;4.18;;;2.78;;
56911;SDS011;42800;53.928;27.662;2022-09-09T03:00:14;2.85;;;1.67;;
56911;SDS011;42800;53.928;27.662;2022-09-09T03:02:41;5.95;;;2.08;;
56911;SDS011;42800;53.928;27.662;2022-09-09T03:05:07;3.00;;;1.98;;
56911;SDS011;42800;53.928;27.662;2022-09-09T03:07:34;5.03;;;1.80;;
56911;SDS011;42800;53.928;27.662;2022-09-09T03:10:01;5.60;;;2.03;;
56911;SDS011;42800;53.928;27.662;2022-09-09T03:12:27;3.05;;;1.90;;
56911;SDS011;42800;53.928;27.662;2022-09-09T03:14:53;2.33;;;1.73;;
56911;SDS011;42800;53.928;27.662;2022-09-09T03:17:19;3.03;;;1.98;;
56911;SDS011;42800;53.928;27.662;2022-09-09T03:19:46;2.30;;;1.98;;
56911;SDS011;42800;53.928;27.662;2022-09-09T03:22:14;1.80;;;1.58;;
56911;SDS011;42800;53.928;27.662;2022-09-09T03:24:41;4.18;;;1.90;;
56911;SDS011;42800;53.928;27.662;2022-09-09T03:27:07;4.68;;;1.77;;
56911;SDS011;42800;53.928;27.662;2022-09-09T03:29:34;2.78;;;1.90;;
56911;SDS011;42800;53.928;27.662;2022-09-09T03:32:00;3.38;;;2.22;;
56911;SDS011;42800;53.928;27.662;2022-09-09T03:34:26;2.28;;;1.70;;
56911;SDS011;42800;53.928;27.662;2022-09-09T03:36:53;3.78;;;1.88;;
56911;SDS011;42800;53.928;27.662;2022-09-09T03:39:19;5.15;;;2.15;;
56911;SDS011;42800;53.928;27.662;2022-09-09T03:41:46;5.05;;;1.60;;
56911;SDS011;42800;53.928;27.662;2022-09-09T03:44:13;5.65;;;2.40;;
56911;SDS011;42800;53.928;27.662;2022-09-09T03:46:39;3.65;;;2.40;;
56911;SDS011;42800;53.928;27.662;2022-09-09T03:49:05;5.88;;;2.30;;
56911;SDS011;42800;53.928;27.662;2022-09-09T03:51:32;2.85;;;2.30;;
56911;SDS011;42800;53.928;27.662;2022-09-09T03:54:01;4.32;;;2.33;;
56911;SDS011;42800;53.928;27.662;2022-09-09T03:56:30;3.55;;;1.75;;
56911;SDS011;42800;53.928;27.662;2022-09-09T03:58:57;3.63;;;2.42;;
56911;SDS011;42800;53.928;27.662;2022-09-09T04:01:23;7.63;;;3.20;;
56911;SDS011;42800;53.928;27.662;2022-09-09T04:03:50;6.28;;;2.80;;
56911;SDS011;42800;53.928;27.662;2022-09-09T04:06:17;6.68;;;2.47;;
56911;SDS011;42800;53.928;27.662;2022-09-09T04:08:43;4.47;;;2.45;;
56911;SDS011;42800;53.928;27.662;2022-09-09T04:11:10;4.03;;;2.28;;
56911;SDS011;42800;53.928;27.662;2022-09-09T04:13:37;10.10;;;2.85;;
56911;SDS011;42800;53.928;27.662;2022-09-09T04:16:05;2.75;;;2.03;;
56911;SDS011;42800;53.928;27.662;2022-09-09T04:18:31;3.03;;;2.17;;
56911;SDS011;42800;53.928;27.662;2022-09-09T04:20:58;8.52;;;2.38;;
56911;SDS011;42800;53.928;27.662;2022-09-09T04:23:24;5.50;;;2.47;;
56911;SDS011;42800;53.928;27.662;2022-09-09T04:25:52;4.15;;;2.38;;
56911;SDS011;42800;53.928;27.662;2022-09-09T04:28:21;4.53;;;2.15;;
56911;SDS011;42800;53.928;27.662;2022-09-09T04:30:48;9.25;;;2.13;;
56911;SDS011;42800;53.928;27.662;2022-09-09T04:33:16;4.18;;;1.90;;
56911;SDS011;42800;53.928;27.662;2022-09-09T04:35:44;2.70;;;1.98;;
56911;SDS011;42800;53.928;27.662;2022-09-09T04:38:12;3.85;;;2.10;;
56911;SDS011;42800;53.928;27.662;2022-09-09T04:40:38;5.85;;;1.92;;
56911;SDS011;42800;53.928;27.662;2022-09-09T04:43:07;2.83;;;1.98;;
56911;SDS011;42800;53.928;27.662;2022-09-09T04:45:33;5.20;;;1.98;;
56911;SDS011;42800;53.928;27.662;2022-09-09T04:48:00;4.90;;;2.20;;
56911;SDS011;42800;53.928;27.662;2022-09-09T04:50:28;2.53;;;2.33;;
56911;SDS011;42800;53.928;27.662;2022-09-09T04:52:54;5.05;;;1.90;;
56911;SDS011;42800;53.928;27.662;2022-09-09T04:55:20;2.85;;;1.88;;
56911;SDS011;42800;53.928;27.662;2022-09-09T04:57:46;5.18;;;1.80;;
56911;SDS011;42800;53.928;27.662;2022-09-09T05:00:13;3.58;;;1.92;;
56911;SDS011;42800;53.928;27.662;2022-09-09T05:02:42;3.38;;;2.10;;
56911;SDS011;42800;53.928;27.662;2022-09-09T05:05:08;9.45;;;2.60;;
56911;SDS011;42800;53.928;27.662;2022-09-09T05:07:37;2.63;;;1.50;;
56911;SDS011;42800;53.928;27.662;2022-09-09T05:10:03;6.43;;;2.38;;
56911;SDS011;42800;53.928;27.662;2022-09-09T05:12:31;10.00;;;1.85;;
56911;SDS011;42800;53.928;27.662;2022-09-09T05:14:57;2.20;;;1.60;;
56911;SDS011;42800;53.928;27.662;2022-09-09T05:17:23;2.83;;;1.63;;
56911;SDS011;42800;53.928;27.662;2022-09-09T05:19:49;5.05;;;2.00;;
56911;SDS011;42800;53.928;27.662;2022-09-09T05:22:18;2.38;;;1.50;;
56911;SDS011;42800;53.928;27.662;2022-09-09T05:24:46;4.10;;;1.05;;
56911;SDS011;42800;53.928;27.662;2022-09-09T05:27:13;1.58;;;1.30;;
56911;SDS011;42800;53.928;27.662;2022-09-09T05:29:40;3.28;;;1.95;;
56911;SDS011;42800;53.928;27.662;2022-09-09T05:32:06;1.75;;;1.25;;
56911;SDS011;42800;53.928;27.662;2022-09-09T05:34:33;5.18;;;1.55;;
56911;SDS011;42800;53.928;27.662;2022-09-09T05:36:59;3.05;;;1.67;;
56911;SDS011;42800;53.928;27.662;2022-09-09T05:39:26;3.25;;;1.40;;
56911;SDS011;42800;53.928;27.662;2022-09-09T05:41:52;9.38;;;1.50;;
56911;SDS011;42800;53.928;27.662;2022-09-09T05:44:20;4.43;;;1.48;;
56911;SDS011;42800;53.928;27.662;2022-09-09T05:46:48;2.90;;;1.70;;
56911;SDS011;42800;53.928;27.662;2022-09-09T05:49:14;1.55;;;1.20;;
56911;SDS011;42800;53.928;27.662;2022-09-09T05:51:41;1.33;;;1.23;;
56911;SDS011;42800;53.928;27.662;2022-09-09T05:54:07;2.35;;;1.55;;
56911;SDS011;42800;53.928;27.662;2022-09-09T05:56:34;5.38;;;1.75;;
56911;SDS011;42800;53.928;27.662;2022-09-09T05:59:01;3.70;;;2.00;;
56911;SDS011;42800;53.928;27.662;2022-09-09T06:01:27;3.50;;;2.00;;
56911;SDS011;42800;53.928;27.662;2022-09-09T06:03:55;2.30;;;1.67;;
56911;SDS011;42800;53.928;27.662;2022-09-09T06:06:22;4.13;;;1.73;;
56911;SDS011;42800;53.928;27.662;2022-09-09T06:08:52;3.08;;;1.38;;
56911;SDS011;42800;53.928;27.662;2022-09-09T06:11:20;3.53;;;1.52;;
56911;SDS011;42800;53.928;27.662;2022-09-09T06:13:47;1.85;;;0.88;;
56911;SDS011;42800;53.928;27.662;2022-09-09T06:16:17;4.10;;;1.77;;
56911;SDS011;42800;53.928;27.662;2022-09-09T06:18:45;3.33;;;1.52;;
56911;SDS011;42800;53.928;27.662;2022-09-09T06:21:14;3.15;;;1.30;;
56911;SDS011;42800;53.928;27.662;2022-09-09T06:23:42;2.38;;;1.02;;
56911;SDS011;42800;53.928;27.662;2022-09-09T06:26:09;4.55;;;1.40;;
56911;SDS011;42800;53.928;27.662;2022-09-09T06:28:37;2.88;;;1.00;;
56911;SDS011;42800;53.928;27.662;2022-09-09T06:31:04;1.08;;;1.00;;
56911;SDS011;42800;53.928;27.662;2022-09-09T06:33:36;3.05;;;1.50;;
56911;SDS011;42800;53.928;27.662;2022-09-09T06:36:05;2.75;;;0.93;;
56911;SDS011;42800;53.928;27.662;2022-09-09T06:38:32;1.15;;;0.95;;
56911;SDS011;42800;53.928;27.662;2022-09-09T06:40:59;3.55;;;1.10;;
56911;SDS011;42800;53.928;27.662;2022-09-09T06:43:25;1.33;;;0.90;;
56911;SDS011;42800;53.928;27.662;2022-09-09T06:45:55;3.22;;;1.35;;
56911;SDS011;42800;53.928;27.662;2022-09-09T06:48:22;2.42;;;1.00;;
56911;SDS011;42800;53.928;27.662;2022-09-09T06:50:49;4.18;;;1.17;;
56911;SDS011;42800;53.928;27.662;2022-09-09T06:53:15;1.60;;;0.98;;
56911;SDS011;42800;53.928;27.662;2022-09-09T06:55:44;11.65;;;1.27;;
56911;SDS011;42800;53.928;27.662;2022-09-09T06:58:11;1.17;;;0.93;;
56911;SDS011;42800;53.928;27.662;2022-09-09T07:00:37;1.10;;;1.10;;
56911;SDS011;42800;53.928;27.662;2022-09-09T07:03:03;1.17;;;1.00;;
56911;SDS011;42800;53.928;27.662;2022-09-09T07:05:30;2.70;;;1.20;;
56911;SDS011;42800;53.928;27.662;2022-09-09T07:07:57;3.58;;;1.25;;
56911;SDS011;42800;53.928;27.662;2022-09-09T07:10:23;1.73;;;0.90;;
56911;SDS011;42800;53.928;27.662;2022-09-09T07:12:50;1.05;;;0.93;;
56911;SDS011;42800;53.928;27.662;2022-09-09T07:15:17;1.15;;;1.00;;
56911;SDS011;42800;53.928;27.662;2022-09-09T07:17:44;1.48;;;1.02;;
56911;SDS011;42800;53.928;27.662;2022-09-09T07:20:11;0.82;;;0.80;;
56911;SDS011;42800;53.928;27.662;2022-09-09T07:22:39;4.65;;;0.93;;
56911;SDS011;42800;53.928;27.662;2022-09-09T07:25:07;8.07;;;1.13;;
56911;SDS011;42800;53.928;27.662;2022-09-09T07:27:33;2.15;;;1.50;;
56911;SDS011;42800;53.928;27.662;2022-09-09T07:30:00;3.22;;;1.58;;
56911;SDS011;42800;53.928;27.662;2022-09-09T07:32:27;1.50;;;1.17;;
56911;SDS011;42800;53.928;27.662;2022-09-09T07:34:55;5.82;;;0.90;;
56911;SDS011;42800;53.928;27.662;2022-09-09T07:37:23;4.57;;;0.90;;
56911;SDS011;42800;53.928;27.662;2022-09-09T07:39:49;2.78;;;0.85;;
56911;SDS011;42800;53.928;27.662;2022-09-09T07:42:17;2.80;;;0.70;;
56911;SDS011;42800;53.928;27.662;2022-09-09T07:44:44;0.90;;;0.85;;
56911;SDS011;42800;53.928;27.662;2022-09-09T07:47:10;2.35;;;0.90;;
56911;SDS011;42800;53.928;27.662;2022-09-09T07:49:36;0.80;;;0.80;;
56911;SDS011;42800;53.928;27.662;2022-09-09T07:52:02;1.77;;;0.70;;
56911;SDS011;42800;53.928;27.662;2022-09-09T07:54:29;1.95;;;0.77;;
56911;SDS011;42800;53.928;27.662;2022-09-09T07:56:55;1.92;;;1.27;;
56911;SDS011;42800;53.928;27.662;2022-09-09T07:59:22;3.75;;;0.80;;
56911;SDS011;42800;53.928;27.662;2022-09-09T08:01:49;0.85;;;0.80;;
56911;SDS011;42800;53.928;27.662;2022-09-09T08:04:20;0.70;;;0.70;;
56911;SDS011;42800;53.928;27.662;2022-09-09T08:06:48;3.13;;;0.90;;
56911;SDS011;42800;53.928;27.662;2022-09-09T08:09:18;1.77;;;1.23;;
56911;SDS011;42800;53.928;27.662;2022-09-09T08:11:45;1.27;;;0.90;;
56911;SDS011;42800;53.928;27.662;2022-09-09T08:14:12;2.97;;;1.63;;
56911;SDS011;42800;53.928;27.662;2022-09-09T08:16:40;3.33;;;1.00;;
56911;SDS011;42800;53.928;27.662;2022-09-09T08:19:07;3.50;;;0.80;;
56911;SDS011;42800;53.928;27.662;2022-09-09T08:21:35;6.80;;;0.80;;
56911;SDS011;42800;53.928;27.662;2022-09-09T08:24:04;1.35;;;0.70;;
56911;SDS011;42800;53.928;27.662;2022-09-09T08:26:31;2.55;;;0.80;;
56911;SDS011;42800;53.928;27.662;2022-09-09T08:29:00;3.42;;;0.68;;
56911;SDS011;42800;53.928;27.662;2022-09-09T08:31:28;0.73;;;0.60;;
56911;SDS011;42800;53.928;27.662;2022-09-09T08:33:56;1.10;;;0.70;;
56911;SDS011;42800;53.928;27.662;2022-09-09T08:36:24;0.55;;;0.50;;
56911;SDS011;42800;53.928;27.662;2022-09-09T08:38:52;3.42;;;0.65;;
56911;SDS011;42800;53.928;27.662;2022-09-09T08:41:40;1.55;;;0.70;;
56911;SDS011;42800;53.928;27.662;2022-09-09T08:44:18;0.65;;;0.65;;
56911;SDS011;42800;53.928;27.662;2022-09-09T08:46:55;3.83;;;1.25;;
56911;SDS011;42800;53.928;27.662;2022-09-09T08:49:37;1.00;;;0.68;;
56911;SDS011;42800;53.928;27.662;2022-09-09T08:52:16;7.60;;;1.30;;
56911;SDS011;42800;53.928;27.662;2022-09-09T08:54:45;2.25;;;1.10;;
56911;SDS011;42800;53.928;27.662;2022-09-09T08:57:13;2.58;;;0.80;;
56911;SDS011;42800;53.928;27.662;2022-09-09T08:59:44;2.17;;;1.00;;
56911;SDS011;42800;53.928;27.662;2022-09-09T09:02:14;1.00;;;0.57;;
56911;SDS011;42800;53.928;27.662;2022-09-09T09:04:53;6.70;;;1.23;;
56911;SDS011;42800;53.928;27.662;2022-09-09T09:07:32;3.72;;;0.98;;
56911;SDS011;42800;53.928;27.662;2022-09-09T09:10:10;1.38;;;0.60;;
56911;SDS011;42800;53.928;27.662;2022-09-09T09:15:11;3.70;;;0.63;;
56911;SDS011;42800;53.928;27.662;2022-09-09T09:17:43;0.95;;;0.80;;
56911;SDS011;42800;53.928;27.662;2022-09-09T09:20:12;7.00;;;0.68;;
56911;SDS011;42800;53.928;27.662;2022-09-09T09:22:43;6.45;;;0.63;;
56911;SDS011;42800;53.928;27.662;2022-09-09T09:25:14;6.93;;;0.73;;
56911;SDS011;42800;53.928;27.662;2022-09-09T09:27:44;1.15;;;0.70;;
56911;SDS011;42800;53.928;27.662;2022-09-09T09:30:17;10.13;;;0.85;;
56911;SDS011;42800;53.928;27.662;2022-09-09T09:32:48;0.60;;;0.50;;
56911;SDS011;42800;53.928;27.662;2022-09-09T09:35:20;4.30;;;0.77;;
56911;SDS011;42800;53.928;27.662;2022-09-09T09:37:46;0.85;;;0.60;;
56911;SDS011;42800;53.928;27.662;2022-09-09T09:40:14;1.05;;;0.60;;
56911;SDS011;42800;53.928;27.662;2022-09-09T09:42:47;1.35;;;0.70;;
56911;SDS011;42800;53.928;27.662;2022-09-09T09:45:16;1.30;;;0.68;;
56911;SDS011;42800;53.928;27.662;2022-09-09T09:47:57;3.90;;;0.60;;
56911;SDS011;42800;53.928;27.662;2022-09-09T09:50:28;0.65;;;0.60;;
56911;SDS011;42800;53.928;27.662;2022-09-09T09:52:57;0.95;;;0.68;;
56911;SDS011;42800;53.928;27.662;2022-09-09T09:55:26;2.70;;;0.75;;
56911;SDS011;42800;53.928;27.662;2022-09-09T09:58:00;0.57;;;0.57;;
56911;SDS011;42800;53.928;27.662;2022-09-09T10:00:29;0.85;;;0.77;;
56911;SDS011;42800;53.928;27.662;2022-09-09T10:02:55;5.80;;;0.80;;
56911;SDS011;42800;53.928;27.662;2022-09-09T10:05:22;0.82;;;0.70;;
56911;SDS011;42800;53.928;27.662;2022-09-09T10:08:00;2.30;;;0.80;;
56911;SDS011;42800;53.928;27.662;2022-09-09T10:10:36;6.30;;;1.00;;
56911;SDS011;42800;53.928;27.662;2022-09-09T10:13:14;0.98;;;0.98;;
56911;SDS011;42800;53.928;27.662;2022-09-09T10:15:48;2.30;;;0.60;;
56911;SDS011;42800;53.928;27.662;2022-09-09T10:18:38;3.25;;;0.77;;
56911;SDS011;42800;53.928;27.662;2022-09-09T10:21:15;1.00;;;0.70;;
56911;SDS011;42800;53.928;27.662;2022-09-09T10:23:56;0.65;;;0.50;;
56911;SDS011;42800;53.928;27.662;2022-09-09T10:26:36;0.82;;;0.40;;
56911;SDS011;42800;53.928;27.662;2022-09-09T10:29:14;1.67;;;0.70;;
56911;SDS011;42800;53.928;27.662;2022-09-09T10:31:51;0.65;;;0.60;;
56911;SDS011;42800;53.928;27.662;2022-09-09T10:34:35;1.50;;;0.63;;
56911;SDS011;42800;53.928;27.662;2022-09-09T10:37:15;4.13;;;0.85;;
56911;SDS011;42800;53.928;27.662;2022-09-09T10:39:52;1.48;;;0.90;;
56911;SDS011;42800;53.928;27.662;2022-09-09T10:42:27;6.05;;;1.15;;
56911;SDS011;42800;53.928;27.662;2022-09-09T10:44:59;0.50;;;0.50;;
56911;SDS011;42800;53.928;27.662;2022-09-09T10:50:23;2.78;;;1.17;;
56911;SDS011;42800;53.928;27.662;2022-09-09T10:53:00;6.35;;;0.98;;
56911;SDS011;42800;53.928;27.662;2022-09-09T10:55:37;2.55;;;0.63;;
56911;SDS011;42800;53.928;27.662;2022-09-09T10:58:09;4.10;;;0.70;;
56911;SDS011;42800;53.928;27.662;2022-09-09T11:00:41;4.10;;;0.63;;
56911;SDS011;42800;53.928;27.662;2022-09-09T11:05:41;0.50;;;0.50;;
56911;SDS011;42800;53.928;27.662;2022-09-09T11:08:10;3.38;;;0.50;;
56911;SDS011;42800;53.928;27.662;2022-09-09T11:10:42;0.55;;;0.40;;
56911;SDS011;42800;53.928;27.662;2022-09-09T11:13:14;2.83;;;0.63;;
56911;SDS011;42800;53.928;27.662;2022-09-09T11:15:45;4.47;;;0.40;;
56911;SDS011;42800;53.928;27.662;2022-09-09T11:18:17;5.95;;;0.73;;
56911;SDS011;42800;53.928;27.662;2022-09-09T11:20:46;4.65;;;0.43;;
56911;SDS011;42800;53.928;27.662;2022-09-09T11:23:15;2.00;;;0.40;;
56911;SDS011;42800;53.928;27.662;2022-09-09T11:25:48;0.73;;;0.60;;
56911;SDS011;42800;53.928;27.662;2022-09-09T11:28:30;1.00;;;0.50;;
56911;SDS011;42800;53.928;27.662;2022-09-09T11:31:13;2.78;;;0.52;;
56911;SDS011;42800;53.928;27.662;2022-09-09T11:33:53;2.83;;;0.80;;
56911;SDS011;42800;53.928;27.662;2022-09-09T11:36:36;5.45;;;0.60;;
56911;SDS011;42800;53.928;27.662;2022-09-09T11:39:24;6.45;;;0.75;;
56911;SDS011;42800;53.928;27.662;2022-09-09T11:44:43;1.75;;;0.80;;
56911;SDS011;42800;53.928;27.662;2022-09-09T11:47:15;3.13;;;0.90;;
56911;SDS011;42800;53.928;27.662;2022-09-09T11:49:46;2.22;;;1.10;;
56911;SDS011;42800;53.928;27.662;2022-09-09T11:52:19;2.00;;;1.08;;
56911;SDS011;42800;53.928;27.662;2022-09-09T11:54:48;4.72;;;1.20;;
56911;SDS011;42800;53.928;27.662;2022-09-09T11:57:22;1.75;;;0.90;;
56911;SDS011;42800;53.928;27.662;2022-09-09T11:59:51;3.65;;;1.20;;
56911;SDS011;42800;53.928;27.662;2022-09-09T12:02:19;2.50;;;0.80;;
56911;SDS011;42800;53.928;27.662;2022-09-09T12:04:53;2.45;;;0.93;;
56911;SDS011;42800;53.928;27.662;2022-09-09T12:07:25;4.63;;;0.70;;
56911;SDS011;42800;53.928;27.662;2022-09-09T12:09:58;2.15;;;0.82;;
56911;SDS011;42800;53.928;27.662;2022-09-09T12:12:30;5.97;;;0.68;;
56911;SDS011;42800;53.928;27.662;2022-09-09T12:15:02;1.60;;;0.90;;
56911;SDS011;42800;53.928;27.662;2022-09-09T12:17:46;4.40;;;0.98;;
56911;SDS011;42800;53.928;27.662;2022-09-09T12:20:16;3.50;;;0.60;;
56911;SDS011;42800;53.928;27.662;2022-09-09T12:25:47;2.05;;;0.45;;
56911;SDS011;42800;53.928;27.662;2022-09-09T12:28:21;3.50;;;0.60;;
56911;SDS011;42800;53.928;27.662;2022-09-09T12:30:53;3.45;;;0.77;;
56911;SDS011;42800;53.928;27.662;2022-09-09T12:33:25;5.10;;;0.60;;
56911;SDS011;42800;53.928;27.662;2022-09-09T12:36:00;4.32;;;0.75;;
56911;SDS011;42800;53.928;27.662;2022-09-09T12:38:30;8.48;;;0.80;;
56911;SDS011;42800;53.928;27.662;2022-09-09T12:40:59;4.55;;;0.70;;
56911;SDS011;42800;53.928;27.662;2022-09-09T12:43:27;5.15;;;0.95;;
56911;SDS011;42800;53.928;27.662;2022-09-09T12:45:55;3.08;;;0.60;;
56911;SDS011;42800;53.928;27.662;2022-09-09T12:48:27;0.98;;;0.50;;
56911;SDS011;42800;53.928;27.662;2022-09-09T12:50:58;5.82;;;0.60;;
56911;SDS011;42800;53.928;27.662;2022-09-09T12:53:26;0.40;;;0.40;;
56911;SDS011;42800;53.928;27.662;2022-09-09T12:55:56;1.13;;;0.60;;
56911;SDS011;42800;53.928;27.662;2022-09-09T12:58:24;1.75;;;0.43;;
56911;SDS011;42800;53.928;27.662;2022-09-09T13:00:53;3.03;;;0.80;;
56911;SDS011;42800;53.928;27.662;2022-09-09T13:03:22;1.88;;;0.70;;
56911;SDS011;42800;53.928;27.662;2022-09-09T13:05:50;5.32;;;0.57;;
56911;SDS011;42800;53.928;27.662;2022-09-09T13:08:18;4.32;;;0.70;;
56911;SDS011;42800;53.928;27.662;2022-09-09T13:10:46;0.85;;;0.70;;
56911;SDS011;42800;53.928;27.662;2022-09-09T13:13:19;7.28;;;1.10;;
56911;SDS011;42800;53.928;27.662;2022-09-09T13:15:49;3.33;;;1.13;;
56911;SDS011;42800;53.928;27.662;2022-09-09T13:18:18;1.30;;;0.70;;
56911;SDS011;42800;53.928;27.662;2022-09-09T13:20:48;2.67;;;0.70;;
56911;SDS011;42800;53.928;27.662;2022-09-09T13:23:15;1.08;;;0.52;;
56911;SDS011;42800;53.928;27.662;2022-09-09T13:25:52;1.92;;;0.70;;
56911;SDS011;42800;53.928;27.662;2022-09-09T13:28:20;4.68;;;0.70;;
56911;SDS011;42800;53.928;27.662;2022-09-09T13:30:56;2.38;;;0.98;;
56911;SDS011;42800;53.928;27.662;2022-09-09T13:33:28;1.67;;;0.88;;
56911;SDS011;42800;53.928;27.662;2022-09-09T13:35:57;2.30;;;0.90;;
56911;SDS011;42800;53.928;27.662;2022-09-09T13:38:25;2.40;;;0.82;;
56911;SDS011;42800;53.928;27.662;2022-09-09T13:40:57;7.90;;;0.80;;
56911;SDS011;42800;53.928;27.662;2022-09-09T13:43:27;4.35;;;0.82;;
56911;SDS011;42800;53.928;27.662;2022-09-09T13:45:56;3.83;;;1.00;;
56911;SDS011;42800;53.928;27.662;2022-09-09T13:48:24;0.52;;;0.52;;
56911;SDS011;42800;53.928;27.662;2022-09-09T13:50:55;1.23;;;0.82;;
56911;SDS011;42800;53.928;27.662;2022-09-09T13:53:23;2.72;;;0.73;;
56911;SDS011;42800;53.928;27.662;2022-09-09T13:55:50;7.32;;;0.90;;
56911;SDS011;42800;53.928;27.662;2022-09-09T13:58:17;1.85;;;0.80;;
56911;SDS011;42800;53.928;27.662;2022-09-09T14:00:44;6.07;;;0.88;;
56911;SDS011;42800;53.928;27.662;2022-09-09T14:03:12;10.20;;;0.75;;
56911;SDS011;42800;53.928;27.662;2022-09-09T14:05:39;2.78;;;0.80;;
56911;SDS011;42800;53.928;27.662;2022-09-09T14:08:06;1.05;;;0.60;;
56911;SDS011;42800;53.928;27.662;2022-09-09T14:10:33;0.80;;;0.43;;
56911;SDS011;42800;53.928;27.662;2022-09-09T14:13:01;2.25;;;0.75;;
56911;SDS011;42800;53.928;27.662;2022-09-09T14:15:27;1.65;;;0.73;;
56911;SDS011;42800;53.928;27.662;2022-09-09T14:17:54;3.75;;;1.33;;
56911;SDS011;42800;53.928;27.662;2022-09-09T14:20:21;4.57;;;0.80;;
56911;SDS011;42800;53.928;27.662;2022-09-09T14:22:47;1.02;;;0.88;;
56911;SDS011;42800;53.928;27.662;2022-09-09T14:25:13;4.25;;;0.50;;
56911;SDS011;42800;53.928;27.662;2022-09-09T14:27:39;1.17;;;0.70;;
56911;SDS011;42800;53.928;27.662;2022-09-09T14:30:06;2.15;;;0.70;;
56911;SDS011;42800;53.928;27.662;2022-09-09T14:32:33;0.88;;;0.63;;
56911;SDS011;42800;53.928;27.662;2022-09-09T14:34:59;6.45;;;0.65;;
56911;SDS011;42800;53.928;27.662;2022-09-09T14:37:27;1.90;;;0.50;;
56911;SDS011;42800;53.928;27.662;2022-09-09T14:39:53;7.25;;;0.70;;
56911;SDS011;42800;53.928;27.662;2022-09-09T14:42:20;7.03;;;1.90;;
56911;SDS011;42800;53.928;27.662;2022-09-09T14:44:47;0.98;;;0.60;;
56911;SDS011;42800;53.928;27.662;2022-09-09T14:47:13;3.63;;;0.50;;
56911;SDS011;42800;53.928;27.662;2022-09-09T14:49:39;8.13;;;1.13;;
56911;SDS011;42800;53.928;27.662;2022-09-09T14:52:06;1.05;;;0.90;;
56911;SDS011;42800;53.928;27.662;2022-09-09T14:54:35;2.38;;;1.08;;
56911;SDS011;42800;53.928;27.662;2022-09-09T14:57:01;3.28;;;0.98;;
56911;SDS011;42800;53.928;27.662;2022-09-09T14:59:27;1.00;;;0.90;;
56911;SDS011;42800;53.928;27.662;2022-09-09T15:01:53;1.38;;;0.70;;
56911;SDS011;42800;53.928;27.662;2022-09-09T15:04:20;4.30;;;0.80;;